createdAt,value
2023-02-11T00:01:14.120Z,21.93
2023-02-11T00:03:41.983Z,19.15
2023-02-11T00:06:11.195Z,18.42
2023-02-11T00:08:39.392Z,19.02
2023-02-11T00:11:07.875Z,18.67
2023-02-11T00:13:35.420Z,18.53
2023-02-11T00:16:13.711Z,18.75
2023-02-11T00:18:41.599Z,20.45
2023-02-11T00:21:11.944Z,20.85
2023-02-11T00:23:39.523Z,19.30
2023-02-11T00:26:15.879Z,19.27
2023-02-11T00:28:44.077Z,19.85
2023-02-11T00:31:13.226Z,21.00
2023-02-11T00:33:41.070Z,20.02
2023-02-11T00:36:14.345Z,19.30
2023-02-11T00:38:46.544Z,20.13
2023-02-11T00:41:15.070Z,17.92
2023-02-11T00:43:43.064Z,16.92
2023-02-11T00:46:10.853Z,16.17
2023-02-11T00:48:38.601Z,16.48
2023-02-11T00:51:06.879Z,17.23
2023-02-11T00:53:34.794Z,15.20
2023-02-11T00:56:02.449Z,16.10
2023-02-11T00:58:30.378Z,16.70
2023-02-11T01:00:58.341Z,17.40
2023-02-11T01:03:26.056Z,17.73
2023-02-11T01:05:54.237Z,17.60
2023-02-11T01:08:21.778Z,19.12
2023-02-11T01:11:03.296Z,18.37
2023-02-11T01:13:32.263Z,17.98
2023-02-11T01:16:00.213Z,17.97
2023-02-11T01:18:27.807Z,19.33
2023-02-11T01:20:55.585Z,18.35
2023-02-11T01:23:24.036Z,19.87
2023-02-11T01:25:52.652Z,16.90
2023-02-11T01:28:26.352Z,17.33
2023-02-11T01:30:54.608Z,14.55
2023-02-11T01:33:23.040Z,15.50
2023-02-11T01:35:50.876Z,14.68
2023-02-11T01:38:26.202Z,15.98
2023-02-11T01:40:57.228Z,15.33
2023-02-11T01:43:26.170Z,14.90
2023-02-11T01:46:12.455Z,15.32
2023-02-11T01:48:42.940Z,12.68
2023-02-11T01:51:17.454Z,12.82
2023-02-11T01:54:05.157Z,14.07
2023-02-11T01:56:53.113Z,12.70
2023-02-11T01:59:25.960Z,12.30
2023-02-11T02:01:57.789Z,14.87
2023-02-11T02:04:31.541Z,15.48
2023-02-11T02:07:10.025Z,17.57
2023-02-11T02:09:46.634Z,18.17
2023-02-11T02:12:14.237Z,17.98
2023-02-11T02:14:43.204Z,15.55
2023-02-11T02:17:22.235Z,15.43
2023-02-11T02:20:04.302Z,13.43
2023-02-11T02:22:53.674Z,13.48
2023-02-11T02:25:27.267Z,15.18
2023-02-11T02:28:07.362Z,14.77
2023-02-11T02:30:53.422Z,13.80
2023-02-11T02:33:58.942Z,14.67
2023-02-11T02:36:38.336Z,14.73
2023-02-11T02:39:18.551Z,15.32
2023-02-11T02:41:46.448Z,14.98
2023-02-11T02:44:14.255Z,15.70
2023-02-11T02:46:41.891Z,15.47
2023-02-11T02:49:14.266Z,13.50
2023-02-11T02:51:54.291Z,15.25
2023-02-11T02:54:43.810Z,16.40
2023-02-11T02:57:30.528Z,15.40
2023-02-11T02:59:58.100Z,14.27
2023-02-11T03:02:36.229Z,14.73
2023-02-11T03:05:28.566Z,14.98
2023-02-11T03:08:10.206Z,16.15
2023-02-11T03:10:42.014Z,14.50
2023-02-11T03:13:10.213Z,14.63
2023-02-11T03:15:46.239Z,14.35
2023-02-11T03:18:16.401Z,13.75
2023-02-11T03:20:45.944Z,14.23
2023-02-11T03:23:30.119Z,14.55
2023-02-11T03:26:09.328Z,14.53
2023-02-11T03:29:09.247Z,14.63
2023-02-11T03:31:49.193Z,15.88
2023-02-11T03:34:27.418Z,16.48
2023-02-11T03:36:58.421Z,17.02
2023-02-11T03:39:31.731Z,17.00
2023-02-11T03:41:59.922Z,16.83
2023-02-11T03:44:33.148Z,18.20
2023-02-11T03:47:01.292Z,16.23
2023-02-11T03:49:30.152Z,16.73
2023-02-11T03:51:58.238Z,17.27
2023-02-11T03:54:29.768Z,14.90
2023-02-11T03:56:59.748Z,15.07
2023-02-11T03:59:27.394Z,15.55
2023-02-11T04:01:55.070Z,14.23
2023-02-11T04:04:22.921Z,14.57
2023-02-11T04:06:50.419Z,14.10
2023-02-11T04:09:18.019Z,13.43
2023-02-11T04:11:46.088Z,16.25
2023-02-11T04:14:13.576Z,14.70
2023-02-11T04:16:41.111Z,14.67
2023-02-11T04:19:09.009Z,15.15
2023-02-11T04:21:36.504Z,16.23
2023-02-11T04:24:04.196Z,14.87
2023-02-11T04:26:32.048Z,17.00
2023-02-11T04:28:59.777Z,15.47
2023-02-11T04:31:28.476Z,15.35
2023-02-11T04:33:57.031Z,15.30
2023-02-11T04:36:24.516Z,13.77
2023-02-11T04:38:51.993Z,17.58
2023-02-11T04:41:19.830Z,17.13
2023-02-11T04:43:47.440Z,16.40
2023-02-11T04:46:15.136Z,16.80
2023-02-11T04:48:43.054Z,17.62
2023-02-11T04:51:10.471Z,18.67
2023-02-11T04:53:38.050Z,18.33
2023-02-11T04:56:05.966Z,19.75
2023-02-11T04:58:33.555Z,18.02
2023-02-11T05:01:11.298Z,16.15
2023-02-11T05:03:39.241Z,20.45
2023-02-11T05:06:07.265Z,21.73
2023-02-11T05:08:34.826Z,26.55
2023-02-11T05:11:02.700Z,26.65
2023-02-11T05:13:30.473Z,29.70
2023-02-11T05:15:58.037Z,30.33
2023-02-11T05:18:26.132Z,31.27
2023-02-11T05:20:54.575Z,31.73
2023-02-11T05:23:22.060Z,22.83
2023-02-11T05:25:50.210Z,22.00
2023-02-11T05:28:18.368Z,20.35
2023-02-11T05:30:45.907Z,18.23
2023-02-11T05:33:14.144Z,16.05
2023-02-11T05:35:41.666Z,17.40
2023-02-11T05:38:09.239Z,15.20
2023-02-11T05:40:37.149Z,16.35
2023-02-11T05:43:04.595Z,15.33
2023-02-11T05:45:32.375Z,15.52
2023-02-11T05:48:00.582Z,19.15
2023-02-11T05:50:28.113Z,21.83
2023-02-11T05:52:55.625Z,22.33
2023-02-11T05:55:23.499Z,23.47
2023-02-11T05:57:51.070Z,21.87
2023-02-11T06:00:19.068Z,24.65
2023-02-11T06:02:46.897Z,22.98
2023-02-11T06:05:14.523Z,24.12
2023-02-11T06:07:42.202Z,21.80
2023-02-11T06:10:11.425Z,22.13
2023-02-11T06:12:39.349Z,20.33
2023-02-11T06:15:07.587Z,21.45
2023-02-11T06:17:36.694Z,23.85
2023-02-11T06:20:06.369Z,21.60
2023-02-11T06:22:35.050Z,21.35
2023-02-11T06:25:03.238Z,20.33
2023-02-11T06:27:30.959Z,21.48
2023-02-11T06:29:58.937Z,22.27
2023-02-11T06:32:45.462Z,21.63
2023-02-11T06:35:14.820Z,22.20
2023-02-11T06:37:42.982Z,20.33
2023-02-11T06:40:11.413Z,18.48
2023-02-11T06:42:39.414Z,21.27
2023-02-11T06:45:13.211Z,21.10
2023-02-11T06:47:41.049Z,21.73
2023-02-11T06:50:11.758Z,21.62
2023-02-11T06:52:39.403Z,20.95
2023-02-11T06:55:07.038Z,22.13
2023-02-11T06:57:35.002Z,23.37
2023-02-11T07:00:02.781Z,26.08
2023-02-11T07:02:31.845Z,26.75
2023-02-11T07:04:59.658Z,25.37
2023-02-11T07:07:27.583Z,28.90
2023-02-11T07:09:55.156Z,25.63
2023-02-11T07:12:23.161Z,24.80
2023-02-11T07:14:50.841Z,26.98
2023-02-11T07:17:18.420Z,23.23
2023-02-11T07:19:46.267Z,30.35
2023-02-11T07:22:14.308Z,28.70
2023-02-11T07:24:41.915Z,22.90
2023-02-11T07:27:09.751Z,22.75
2023-02-11T07:29:37.718Z,22.23
2023-02-11T07:32:06.291Z,25.42
2023-02-11T07:34:34.609Z,23.23
2023-02-11T07:37:02.195Z,22.90
2023-02-11T07:39:29.815Z,23.48
2023-02-11T07:41:58.460Z,21.75
2023-02-11T07:44:26.755Z,25.35
2023-02-11T07:46:54.441Z,21.77
2023-02-11T07:49:22.371Z,21.85
2023-02-11T07:51:51.351Z,23.73
2023-02-11T07:54:19.540Z,19.67
2023-02-11T07:57:19.662Z,19.75
2023-02-11T07:59:47.999Z,19.13
2023-02-11T08:02:15.571Z,21.75
2023-02-11T08:04:46.137Z,16.65
2023-02-11T08:07:19.870Z,21.80
2023-02-11T08:09:50.288Z,20.30
2023-02-11T08:12:17.881Z,19.70
2023-02-11T08:14:45.461Z,19.58
2023-02-11T08:17:13.333Z,20.65
2023-02-11T08:19:41.202Z,18.30
2023-02-11T08:22:08.829Z,19.92
2023-02-11T08:24:36.693Z,18.37
2023-02-11T08:27:04.384Z,19.25
2023-02-11T08:29:31.950Z,22.50
2023-02-11T08:31:59.737Z,17.73
2023-02-11T08:34:27.336Z,25.15
2023-02-11T08:36:54.968Z,39.93
2023-02-11T08:39:23.188Z,34.53
2023-02-11T08:41:53.190Z,31.23
2023-02-11T08:44:21.551Z,30.62
2023-02-11T08:46:50.216Z,23.10
2023-02-11T08:49:17.914Z,17.97
2023-02-11T08:51:46.231Z,21.33
2023-02-11T08:54:15.077Z,18.55
2023-02-11T08:56:42.689Z,21.80
2023-02-11T08:59:14.252Z,18.10
2023-02-11T09:01:42.192Z,19.27
2023-02-11T09:04:10.640Z,18.23
2023-02-11T09:06:38.247Z,18.12
2023-02-11T09:09:06.088Z,18.98
2023-02-11T09:11:35.535Z,18.42
2023-02-11T09:14:04.270Z,18.47
2023-02-11T09:16:35.892Z,17.02
2023-02-11T09:19:05.394Z,17.45
2023-02-11T09:21:33.549Z,18.60
2023-02-11T09:24:01.159Z,16.50
2023-02-11T09:26:31.222Z,16.00
2023-02-11T09:29:00.275Z,16.73
2023-02-11T09:31:29.894Z,15.13
2023-02-11T09:33:59.828Z,15.27
2023-02-11T09:36:30.183Z,13.80
2023-02-11T09:38:59.499Z,16.70
2023-02-11T09:41:39.688Z,13.98
2023-02-11T09:44:09.870Z,14.48
2023-02-11T09:46:42.242Z,13.90
2023-02-11T09:49:19.720Z,13.85
2023-02-11T09:52:08.454Z,13.57
2023-02-11T09:54:54.601Z,14.23
2023-02-11T09:57:28.559Z,12.48
2023-02-11T09:59:57.832Z,13.15
2023-02-11T10:02:38.074Z,15.23
2023-02-11T10:05:25.867Z,14.10
2023-02-11T10:08:16.755Z,13.27
2023-02-11T10:10:52.828Z,12.75
2023-02-11T10:13:54.655Z,10.63
2023-02-11T10:16:32.426Z,12.60
2023-02-11T10:19:14.145Z,15.43
2023-02-11T10:21:54.999Z,12.82
2023-02-11T10:24:22.592Z,14.02
2023-02-11T10:26:52.041Z,12.90
2023-02-11T10:29:39.023Z,13.52
2023-02-11T10:32:15.498Z,15.00
2023-02-11T10:34:43.075Z,15.40
2023-02-11T10:37:13.933Z,12.60
2023-02-11T10:39:41.594Z,14.23
2023-02-11T10:42:11.705Z,12.55
2023-02-11T10:44:58.942Z,12.10
2023-02-11T10:47:32.830Z,12.50
2023-02-11T10:50:03.753Z,13.23
2023-02-11T10:52:31.725Z,13.25
2023-02-11T10:55:00.574Z,14.00
2023-02-11T10:57:39.887Z,12.93
2023-02-11T11:00:36.254Z,12.73
2023-02-11T11:03:07.799Z,14.73
2023-02-11T11:05:47.635Z,13.02
2023-02-11T11:08:15.887Z,13.10
2023-02-11T11:10:47.003Z,14.10
2023-02-11T11:13:24.194Z,14.87
2023-02-11T11:16:08.534Z,12.73
2023-02-11T11:18:36.427Z,13.48
2023-02-11T11:21:14.368Z,13.18
2023-02-11T11:24:06.291Z,13.13
2023-02-11T11:26:45.711Z,12.82
2023-02-11T11:29:23.128Z,14.05
2023-02-11T11:32:18.285Z,12.52
2023-02-11T11:34:52.160Z,13.90
2023-02-11T11:37:29.214Z,15.17
2023-02-11T11:40:00.525Z,13.88
2023-02-11T11:42:31.263Z,15.48
2023-02-11T11:45:05.008Z,13.95
2023-02-11T11:47:45.507Z,15.70
2023-02-11T11:50:28.207Z,12.90
2023-02-11T11:53:07.774Z,12.50
2023-02-11T11:55:42.439Z,15.23
2023-02-11T11:58:18.445Z,13.45
2023-02-11T12:01:04.863Z,12.57
2023-02-11T12:03:32.605Z,14.63
2023-02-11T12:06:09.326Z,12.90
2023-02-11T12:09:01.820Z,13.50
2023-02-11T12:11:39.319Z,15.32
2023-02-11T12:14:44.221Z,12.85
2023-02-11T12:17:11.655Z,15.57
2023-02-11T12:20:05.567Z,14.20
2023-02-11T12:23:02.548Z,12.90
2023-02-11T12:25:39.101Z,19.27
2023-02-11T12:28:15.485Z,14.35
2023-02-11T12:31:07.406Z,14.33
2023-02-11T12:34:12.453Z,14.68
2023-02-11T12:36:45.871Z,13.70
2023-02-11T12:39:45.529Z,17.40
2023-02-11T12:42:51.166Z,30.55
2023-02-11T12:45:43.919Z,14.67
2023-02-11T12:48:37.310Z,14.35
2023-02-11T12:51:39.653Z,13.90
2023-02-11T12:54:10.995Z,15.18
2023-02-11T12:56:59.226Z,15.95
2023-02-11T12:59:33.509Z,15.70
2023-02-11T13:02:04.561Z,18.87
2023-02-11T13:04:39.408Z,16.02
2023-02-11T13:07:14.873Z,18.00
2023-02-11T13:09:46.729Z,15.00
2023-02-11T13:12:33.533Z,14.43
2023-02-11T13:15:07.153Z,13.85
2023-02-11T13:17:47.164Z,15.93
2023-02-11T13:20:20.764Z,16.40
2023-02-11T13:23:14.223Z,14.32
2023-02-11T13:25:53.438Z,16.30
2023-02-11T13:28:50.268Z,15.43
2023-02-11T13:31:20.443Z,16.02
2023-02-11T13:33:49.925Z,15.25
2023-02-11T13:36:23.720Z,17.00
2023-02-11T13:38:57.869Z,16.07
2023-02-11T13:41:30.364Z,15.18
2023-02-11T13:44:25.499Z,16.08
2023-02-11T13:47:02.405Z,16.77
2023-02-11T13:49:32.702Z,16.37
2023-02-11T13:52:02.072Z,15.13
2023-02-11T13:54:38.558Z,19.85
2023-02-11T13:57:23.696Z,17.02
2023-02-11T13:59:54.119Z,17.58
2023-02-11T14:02:40.336Z,17.35
2023-02-11T14:05:27.123Z,14.63
2023-02-11T14:08:28.609Z,17.15
2023-02-11T14:10:59.293Z,15.32
2023-02-11T14:13:34.754Z,17.58
2023-02-11T14:16:05.764Z,14.60
2023-02-11T14:18:49.623Z,17.27
2023-02-11T14:21:29.652Z,17.20
2023-02-11T14:24:04.938Z,14.38
2023-02-11T14:26:52.324Z,15.23
2023-02-11T14:29:41.609Z,14.70
2023-02-11T14:32:21.757Z,14.97
2023-02-11T14:35:08.401Z,13.80
2023-02-11T14:37:36.185Z,14.90
2023-02-11T14:40:11.297Z,15.20
2023-02-11T14:42:39.806Z,16.02
2023-02-11T14:45:14.546Z,15.83
2023-02-11T14:48:08.475Z,13.93
2023-02-11T14:50:50.005Z,14.68
2023-02-11T14:53:28.520Z,13.77
2023-02-11T14:55:56.318Z,15.57
2023-02-11T14:58:26.138Z,14.93
2023-02-11T15:00:57.339Z,14.65
2023-02-11T15:03:35.972Z,13.55
2023-02-11T15:06:19.114Z,16.10
2023-02-11T15:08:58.409Z,13.05
2023-02-11T15:11:27.508Z,13.97
2023-02-11T15:13:56.482Z,15.13
2023-02-11T15:16:26.088Z,17.70
2023-02-11T15:19:02.229Z,19.48
2023-02-11T15:21:32.829Z,22.20
2023-02-11T15:24:18.461Z,24.17
2023-02-11T15:26:56.226Z,19.73
2023-02-11T15:29:28.731Z,19.37
2023-02-11T15:32:22.653Z,16.50
2023-02-11T15:34:52.420Z,18.08
2023-02-11T15:37:22.204Z,19.53
2023-02-11T15:39:50.680Z,18.42
2023-02-11T15:42:40.771Z,19.52
2023-02-11T15:45:28.713Z,16.52
2023-02-11T15:48:00.279Z,17.87
2023-02-11T15:50:30.679Z,17.70
2023-02-11T15:53:01.268Z,17.45
2023-02-11T15:55:29.335Z,17.92
2023-02-11T15:58:00.692Z,17.75
2023-02-11T16:00:36.264Z,22.85
2023-02-11T16:03:04.811Z,23.83
2023-02-11T16:05:37.404Z,24.75
2023-02-11T16:08:21.272Z,35.10
2023-02-11T16:11:03.389Z,28.77
2023-02-11T16:13:33.697Z,22.95
2023-02-11T16:16:04.700Z,20.80
2023-02-11T16:18:39.230Z,22.58
2023-02-11T16:21:18.154Z,22.83
2023-02-11T16:23:51.829Z,23.67
2023-02-11T16:26:39.267Z,23.67
2023-02-11T16:29:13.728Z,23.20
2023-02-11T16:31:43.798Z,21.92
2023-02-11T16:34:17.153Z,21.05
2023-02-11T16:36:46.067Z,19.60
2023-02-11T16:39:14.993Z,20.75
2023-02-11T16:41:43.298Z,20.43
2023-02-11T16:44:11.120Z,20.77
2023-02-11T16:46:39.381Z,20.80
2023-02-11T16:49:11.246Z,23.42
2023-02-11T16:51:40.662Z,24.35
2023-02-11T16:54:18.194Z,25.03
2023-02-11T16:56:46.482Z,22.58
2023-02-11T16:59:14.603Z,23.92
2023-02-11T17:01:43.171Z,27.25
2023-02-11T17:04:17.775Z,23.02
2023-02-11T17:06:45.892Z,22.40
2023-02-11T17:09:20.781Z,23.80
2023-02-11T17:11:49.450Z,21.83
2023-02-11T17:14:18.674Z,20.52
2023-02-11T17:16:47.756Z,21.33
2023-02-11T17:19:19.688Z,22.57
2023-02-11T17:21:50.751Z,24.50
2023-02-11T17:24:20.293Z,23.00
2023-02-11T17:26:48.816Z,22.42
2023-02-11T17:29:19.462Z,23.12
2023-02-11T17:31:47.337Z,21.37
2023-02-11T17:34:16.679Z,21.42
2023-02-11T17:36:44.882Z,22.55
2023-02-11T17:39:12.942Z,22.27
2023-02-11T17:41:41.602Z,20.80
2023-02-11T17:44:12.321Z,19.10
2023-02-11T17:46:40.317Z,23.33
2023-02-11T17:49:08.505Z,22.17
2023-02-11T17:51:38.286Z,23.73
2023-02-11T17:54:14.357Z,21.55
2023-02-11T17:56:42.868Z,22.47
2023-02-11T17:59:12.176Z,22.17
2023-02-11T18:01:41.192Z,20.88
2023-02-11T18:04:13.766Z,20.50
2023-02-11T18:06:42.697Z,18.95
2023-02-11T18:09:11.334Z,18.60
2023-02-11T18:11:40.469Z,19.58
2023-02-11T18:14:09.103Z,19.85
2023-02-11T18:16:39.465Z,20.88
2023-02-11T18:19:08.034Z,17.90
2023-02-11T18:21:36.338Z,20.00
2023-02-11T18:24:07.036Z,18.67
2023-02-11T18:26:35.361Z,20.08
2023-02-11T18:29:03.928Z,19.92
2023-02-11T18:31:32.245Z,21.30
2023-02-11T18:34:00.150Z,19.67
2023-02-11T18:36:27.707Z,15.68
2023-02-11T18:38:58.233Z,19.10
2023-02-11T18:41:25.965Z,17.52
2023-02-11T18:43:54.483Z,19.48
2023-02-11T18:46:22.707Z,19.23
2023-02-11T18:48:55.565Z,19.60
2023-02-11T18:51:24.330Z,21.92
2023-02-11T18:53:52.489Z,19.85
2023-02-11T18:56:22.788Z,19.30
2023-02-11T18:58:51.465Z,20.20
2023-02-11T19:01:24.410Z,17.90
2023-02-11T19:03:54.599Z,19.05
2023-02-11T19:06:25.665Z,17.95
2023-02-11T19:08:59.807Z,20.60
2023-02-11T19:11:47.725Z,17.97
2023-02-11T19:14:20.651Z,16.60
2023-02-11T19:16:50.625Z,18.58
2023-02-11T19:19:19.257Z,17.05
2023-02-11T19:21:47.654Z,18.83
2023-02-11T19:24:18.929Z,17.40
2023-02-11T19:26:48.228Z,16.58
2023-02-11T19:29:17.306Z,15.95
2023-02-11T19:31:45.421Z,17.58
2023-02-11T19:34:15.343Z,17.77
2023-02-11T19:36:43.608Z,18.07
2023-02-11T19:39:13.362Z,16.80
2023-02-11T19:41:41.685Z,17.73
2023-02-11T19:44:09.664Z,17.30
2023-02-11T19:46:40.793Z,16.15
2023-02-11T19:49:10.128Z,17.03
2023-02-11T19:51:39.508Z,15.90
2023-02-11T19:54:07.686Z,15.45
2023-02-11T19:56:35.653Z,17.02
2023-02-11T19:59:03.893Z,16.30
2023-02-11T20:01:32.972Z,17.00
2023-02-11T20:04:01.564Z,17.00
2023-02-11T20:06:31.517Z,17.42
2023-02-11T20:09:01.772Z,16.75
2023-02-11T20:11:31.396Z,17.27
2023-02-11T20:13:59.434Z,17.70
2023-02-11T20:16:46.309Z,17.25
2023-02-11T20:19:18.393Z,17.60
2023-02-11T20:21:48.353Z,15.15
2023-02-11T20:24:17.682Z,15.98
2023-02-11T20:26:48.401Z,16.37
2023-02-11T20:29:18.009Z,16.52
2023-02-11T20:31:46.230Z,16.10
2023-02-11T20:34:14.180Z,16.83
2023-02-11T20:36:42.347Z,15.38
2023-02-11T20:39:11.556Z,15.33
2023-02-11T20:41:40.120Z,18.00
2023-02-11T20:44:09.951Z,16.77
2023-02-11T20:46:40.382Z,16.12
2023-02-11T20:49:12.104Z,15.38
2023-02-11T20:51:40.410Z,16.73
2023-02-11T20:54:13.318Z,15.98
2023-02-11T20:56:41.688Z,15.65
2023-02-11T20:59:10.573Z,13.77
2023-02-11T21:01:42.338Z,14.95
2023-02-11T21:04:13.104Z,14.97
2023-02-11T21:06:47.331Z,16.90
2023-02-11T21:09:17.419Z,14.60
2023-02-11T21:11:45.861Z,13.88
2023-02-11T21:14:13.524Z,14.32
2023-02-11T21:16:42.309Z,13.77
2023-02-11T21:19:09.998Z,13.80
2023-02-11T21:21:38.824Z,15.85
2023-02-11T21:24:07.609Z,13.52
2023-02-11T21:26:35.889Z,13.70
2023-02-11T21:29:18.118Z,13.90
2023-02-11T21:31:57.448Z,14.35
2023-02-11T21:34:24.984Z,12.95
2023-02-11T21:36:53.118Z,13.80
2023-02-11T21:39:21.239Z,12.10
2023-02-11T21:41:49.126Z,12.73
2023-02-11T21:44:17.877Z,13.02
2023-02-11T21:46:45.743Z,12.35
2023-02-11T21:49:13.410Z,10.75
2023-02-11T21:51:42.499Z,11.88
2023-02-11T21:54:10.901Z,11.63
2023-02-11T21:56:38.401Z,13.82
2023-02-11T21:59:06.482Z,11.45
2023-02-11T22:01:35.421Z,12.00
2023-02-11T22:04:03.513Z,11.63
2023-02-11T22:06:33.605Z,12.20
2023-02-11T22:09:06.675Z,11.40
2023-02-11T22:11:34.821Z,11.55
2023-02-11T22:14:02.641Z,10.80
2023-02-11T22:16:30.529Z,11.68
2023-02-11T22:18:58.992Z,13.67
2023-02-11T22:21:26.927Z,12.40
2023-02-11T22:23:55.401Z,11.57
2023-02-11T22:26:41.364Z,12.45
2023-02-11T22:29:09.328Z,12.10
2023-02-11T22:31:37.418Z,12.27
2023-02-11T22:34:06.156Z,11.60
2023-02-11T22:36:39.754Z,10.95
2023-02-11T22:39:11.423Z,11.50
2023-02-11T22:41:41.054Z,11.43
2023-02-11T22:44:09.472Z,13.33
2023-02-11T22:46:37.356Z,11.88
2023-02-11T22:49:05.484Z,12.18
2023-02-11T22:51:33.752Z,13.25
2023-02-11T22:54:03.679Z,13.48
2023-02-11T22:56:32.273Z,13.63
2023-02-11T22:59:02.631Z,11.80
2023-02-11T23:01:30.955Z,12.27
2023-02-11T23:04:03.673Z,12.32
2023-02-11T23:06:31.766Z,13.57
2023-02-11T23:08:59.448Z,12.70
2023-02-11T23:11:29.248Z,12.13
2023-02-11T23:13:57.234Z,12.68
2023-02-11T23:16:27.500Z,13.88
2023-02-11T23:18:55.612Z,13.82
2023-02-11T23:21:25.381Z,12.90
2023-02-11T23:24:00.857Z,13.25
2023-02-11T23:26:29.235Z,12.85
2023-02-11T23:28:58.306Z,12.57
2023-02-11T23:31:28.885Z,11.30
2023-02-11T23:33:57.608Z,12.70
2023-02-11T23:36:25.238Z,12.60
2023-02-11T23:38:52.906Z,12.10
2023-02-11T23:41:21.269Z,12.90
2023-02-11T23:43:50.829Z,12.90
2023-02-11T23:46:19.195Z,12.17
2023-02-11T23:48:47.028Z,11.98
2023-02-11T23:51:14.608Z,13.23
2023-02-11T23:53:42.149Z,11.98
2023-02-11T23:56:14.307Z,13.10
2023-02-11T23:58:42.079Z,12.20
